sensor_id;sensor_type;location;lat;lon;timestamp;temperature;humidity
37874;DHT22;23709;48.078;11.684;2023-02-01T05:53:27;3.20;99.90
37874;DHT22;23709;48.078;11.684;2023-02-01T05:56:00;3.30;99.90
37874;DHT22;23709;48.078;11.684;2023-02-01T05:58:33;3.30;99.90
37874;DHT22;23709;48.078;11.684;2023-02-01T06:01:05;3.40;99.90
37874;DHT22;23709;48.078;11.684;2023-02-01T06:03:37;3.50;99.90
37874;DHT22;23709;48.078;11.684;2023-02-01T06:06:09;3.50;99.90
37874;DHT22;23709;48.078;11.684;2023-02-01T06:08:42;3.60;99.90
37874;DHT22;23709;48.078;11.684;2023-02-01T06:11:14;3.60;99.90
37874;DHT22;23709;48.078;11.684;2023-02-01T06:14:02;3.60;99.90
37874;DHT22;23709;48.078;11.684;2023-02-01T06:16:35;3.80;99.90
37874;DHT22;23709;48.078;11.684;2023-02-01T06:19:07;3.80;99.90
37874;DHT22;23709;48.078;11.684;2023-02-01T06:21:40;3.80;99.90
37874;DHT22;23709;48.078;11.684;2023-02-01T06:24:13;3.90;99.90
37874;DHT22;23709;48.078;11.684;2023-02-01T15:10:08;4.40;98.70
37874;DHT22;23709;48.078;11.684;2023-02-01T15:12:40;4.40;99.70
37874;DHT22;23709;48.078;11.684;2023-02-01T15:15:22;4.40;99.20
37874;DHT22;23709;48.078;11.684;2023-02-01T15:17:59;4.50;99.90
37874;DHT22;23709;48.078;11.684;2023-02-01T15:20:33;4.50;99.90
37874;DHT22;23709;48.078;11.684;2023-02-01T15:23:16;4.50;99.70
37874;DHT22;23709;48.078;11.684;2023-02-01T15:25:49;4.50;99.90
37874;DHT22;23709;48.078;11.684;2023-02-01T15:28:25;4.40;99.90
37874;DHT22;23709;48.078;11.684;2023-02-01T15:31:04;4.50;99.90
37874;DHT22;23709;48.078;11.684;2023-02-01T15:33:36;4.50;99.90
37874;DHT22;23709;48.078;11.684;2023-02-01T15:36:19;4.40;99.90
37874;DHT22;23709;48.078;11.684;2023-02-01T15:39:17;4.40;99.90
37874;DHT22;23709;48.078;11.684;2023-02-01T15:41:53;4.30;99.90
37874;DHT22;23709;48.078;11.684;2023-02-01T15:44:39;4.30;99.90
37874;DHT22;23709;48.078;11.684;2023-02-01T15:47:17;4.20;99.90
37874;DHT22;23709;48.078;11.684;2023-02-01T15:49:52;4.00;99.90
37874;DHT22;23709;48.078;11.684;2023-02-01T15:52:39;3.80;99.90
37874;DHT22;23709;48.078;11.684;2023-02-01T15:55:23;3.70;99.90
37874;DHT22;23709;48.078;11.684;2023-02-01T15:57:57;3.70;99.90
37874;DHT22;23709;48.078;11.684;2023-02-01T16:01:00;3.80;99.90
37874;DHT22;23709;48.078;11.684;2023-02-01T16:03:42;3.70;99.90
37874;DHT22;23709;48.078;11.684;2023-02-01T16:09:48;3.70;99.90
37874;DHT22;23709;48.078;11.684;2023-02-01T16:12:00;3.70;99.90
37874;DHT22;23709;48.078;11.684;2023-02-01T16:14:33;3.70;99.90
37874;DHT22;23709;48.078;11.684;2023-02-01T16:17:05;3.80;99.90
37874;DHT22;23709;48.078;11.684;2023-02-01T16:19:37;3.80;99.90
37874;DHT22;23709;48.078;11.684;2023-02-01T16:22:10;3.90;99.90
37874;DHT22;23709;48.078;11.684;2023-02-01T16:24:42;3.90;99.90
37874;DHT22;23709;48.078;11.684;2023-02-01T16:27:14;3.90;99.90
37874;DHT22;23709;48.078;11.684;2023-02-01T16:29:46;3.80;99.90
37874;DHT22;23709;48.078;11.684;2023-02-01T16:32:20;3.90;99.90
37874;DHT22;23709;48.078;11.684;2023-02-01T16:34:53;3.90;99.90
37874;DHT22;23709;48.078;11.684;2023-02-01T16:37:25;3.80;99.90
37874;DHT22;23709;48.078;11.684;2023-02-01T16:39:59;3.90;99.90
37874;DHT22;23709;48.078;11.684;2023-02-01T16:42:32;4.00;99.90
37874;DHT22;23709;48.078;11.684;2023-02-01T16:45:05;4.00;99.90
37874;DHT22;23709;48.078;11.684;2023-02-01T16:47:39;4.10;99.90
37874;DHT22;23709;48.078;11.684;2023-02-01T16:50:16;4.10;99.90
37874;DHT22;23709;48.078;11.684;2023-02-01T16:52:54;4.00;99.90
37874;DHT22;23709;48.078;11.684;2023-02-01T16:55:26;4.10;99.90
37874;DHT22;23709;48.078;11.684;2023-02-01T16:57:59;4.10;99.90
37874;DHT22;23709;48.078;11.684;2023-02-01T17:00:32;4.00;99.90
37874;DHT22;23709;48.078;11.684;2023-02-01T17:03:10;4.10;99.90
37874;DHT22;23709;48.078;11.684;2023-02-01T17:05:54;4.20;99.90
37874;DHT22;23709;48.078;11.684;2023-02-01T17:08:31;4.30;99.90
37874;DHT22;23709;48.078;11.684;2023-02-01T17:11:06;4.30;99.90
37874;DHT22;23709;48.078;11.684;2023-02-01T17:13:40;4.30;99.30
37874;DHT22;23709;48.078;11.684;2023-02-01T17:19:02;4.30;98.00
37874;DHT22;23709;48.078;11.684;2023-02-01T17:21:46;4.30;97.40
37874;DHT22;23709;48.078;11.684;2023-02-01T17:24:24;4.30;97.30
37874;DHT22;23709;48.078;11.684;2023-02-01T17:27:07;4.30;96.30
37874;DHT22;23709;48.078;11.684;2023-02-01T17:29:42;4.40;95.30
37874;DHT22;23709;48.078;11.684;2023-02-01T17:32:21;4.50;94.60
37874;DHT22;23709;48.078;11.684;2023-02-01T17:34:54;4.40;95.20
37874;DHT22;23709;48.078;11.684;2023-02-01T17:37:30;4.40;95.20
37874;DHT22;23709;48.078;11.684;2023-02-01T17:40:03;4.60;94.30
37874;DHT22;23709;48.078;11.684;2023-02-01T17:42:35;4.50;94.20
37874;DHT22;23709;48.078;11.684;2023-02-01T17:45:27;4.50;94.00
37874;DHT22;23709;48.078;11.684;2023-02-01T17:48:05;4.50;94.40
37874;DHT22;23709;48.078;11.684;2023-02-01T17:50:38;4.60;93.10
37874;DHT22;23709;48.078;11.684;2023-02-01T17:53:11;4.60;93.10
37874;DHT22;23709;48.078;11.684;2023-02-01T17:55:47;4.50;93.60
37874;DHT22;23709;48.078;11.684;2023-02-01T17:58:19;4.60;93.20
37874;DHT22;23709;48.078;11.684;2023-02-01T18:00:52;4.60;93.30
37874;DHT22;23709;48.078;11.684;2023-02-01T18:03:29;4.60;92.50
37874;DHT22;23709;48.078;11.684;2023-02-01T18:06:03;4.60;92.60
37874;DHT22;23709;48.078;11.684;2023-02-01T18:08:35;4.60;92.10
37874;DHT22;23709;48.078;11.684;2023-02-01T18:11:11;4.60;92.90
37874;DHT22;23709;48.078;11.684;2023-02-01T18:13:47;4.60;91.80
37874;DHT22;23709;48.078;11.684;2023-02-01T18:16:21;4.60;92.50
37874;DHT22;23709;48.078;11.684;2023-02-01T18:18:54;4.60;91.60
37874;DHT22;23709;48.078;11.684;2023-02-01T18:21:35;4.70;91.00
37874;DHT22;23709;48.078;11.684;2023-02-01T18:24:16;4.60;91.60
37874;DHT22;23709;48.078;11.684;2023-02-01T18:26:50;4.60;91.00
37874;DHT22;23709;48.078;11.684;2023-02-01T18:29:23;4.60;91.10
37874;DHT22;23709;48.078;11.684;2023-02-01T18:31:55;4.60;90.50
37874;DHT22;23709;48.078;11.684;2023-02-01T18:34:27;4.70;91.20
37874;DHT22;23709;48.078;11.684;2023-02-01T18:37:00;4.70;91.00
37874;DHT22;23709;48.078;11.684;2023-02-01T18:39:33;4.70;90.80
37874;DHT22;23709;48.078;11.684;2023-02-01T18:42:05;4.60;90.90
37874;DHT22;23709;48.078;11.684;2023-02-01T18:44:37;4.70;90.90
37874;DHT22;23709;48.078;11.684;2023-02-01T18:47:09;4.60;90.70
37874;DHT22;23709;48.078;11.684;2023-02-01T18:49:41;4.70;90.40
37874;DHT22;23709;48.078;11.684;2023-02-01T18:52:13;4.70;90.00
37874;DHT22;23709;48.078;11.684;2023-02-01T18:54:45;4.80;89.80
37874;DHT22;23709;48.078;11.684;2023-02-01T18:57:30;4.90;88.50
37874;DHT22;23709;48.078;11.684;2023-02-01T19:00:06;4.70;90.20
37874;DHT22;23709;48.078;11.684;2023-02-01T19:02:38;4.70;89.70
37874;DHT22;23709;48.078;11.684;2023-02-01T19:05:12;4.70;89.80
37874;DHT22;23709;48.078;11.684;2023-02-01T19:07:45;4.70;90.10
37874;DHT22;23709;48.078;11.684;2023-02-01T19:10:19;4.70;90.00
37874;DHT22;23709;48.078;11.684;2023-02-01T19:12:54;4.70;89.20
37874;DHT22;23709;48.078;11.684;2023-02-01T19:15:27;4.80;88.70
37874;DHT22;23709;48.078;11.684;2023-02-01T19:17:59;4.70;89.30
37874;DHT22;23709;48.078;11.684;2023-02-01T19:20:32;4.70;89.20
37874;DHT22;23709;48.078;11.684;2023-02-01T19:23:04;4.70;89.00
37874;DHT22;23709;48.078;11.684;2023-02-01T19:25:36;4.60;90.00
37874;DHT22;23709;48.078;11.684;2023-02-01T19:28:09;4.70;88.30
37874;DHT22;23709;48.078;11.684;2023-02-01T19:30:41;4.70;88.90
37874;DHT22;23709;48.078;11.684;2023-02-01T19:33:15;4.70;89.10
37874;DHT22;23709;48.078;11.684;2023-02-01T19:35:47;4.70;88.30
37874;DHT22;23709;48.078;11.684;2023-02-01T19:38:19;4.70;88.90
37874;DHT22;23709;48.078;11.684;2023-02-01T19:40:53;4.80;87.80
37874;DHT22;23709;48.078;11.684;2023-02-01T19:43:26;4.70;89.10
37874;DHT22;23709;48.078;11.684;2023-02-01T19:45:59;4.80;87.60
37874;DHT22;23709;48.078;11.684;2023-02-01T19:48:34;4.80;88.20
37874;DHT22;23709;48.078;11.684;2023-02-01T19:51:09;4.60;89.00
37874;DHT22;23709;48.078;11.684;2023-02-01T19:53:43;4.70;88.90
37874;DHT22;23709;48.078;11.684;2023-02-01T19:56:16;4.70;89.40
37874;DHT22;23709;48.078;11.684;2023-02-01T19:58:50;4.70;89.10
37874;DHT22;23709;48.078;11.684;2023-02-01T20:01:24;4.80;89.00
37874;DHT22;23709;48.078;11.684;2023-02-01T20:03:57;4.70;89.80
37874;DHT22;23709;48.078;11.684;2023-02-01T20:06:38;4.60;88.60
37874;DHT22;23709;48.078;11.684;2023-02-01T20:09:11;4.70;89.80
37874;DHT22;23709;48.078;11.684;2023-02-01T20:11:47;4.60;89.60
37874;DHT22;23709;48.078;11.684;2023-02-01T20:14:29;4.70;88.60
37874;DHT22;23709;48.078;11.684;2023-02-01T20:17:02;4.80;88.90
37874;DHT22;23709;48.078;11.684;2023-02-01T20:19:35;4.80;88.50
37874;DHT22;23709;48.078;11.684;2023-02-01T20:22:07;4.70;88.50
37874;DHT22;23709;48.078;11.684;2023-02-01T20:24:39;4.70;89.00
37874;DHT22;23709;48.078;11.684;2023-02-01T20:27:11;4.80;88.30
37874;DHT22;23709;48.078;11.684;2023-02-01T20:29:44;4.80;87.80
37874;DHT22;23709;48.078;11.684;2023-02-01T20:32:16;4.70;88.20
37874;DHT22;23709;48.078;11.684;2023-02-01T20:34:49;4.70;88.80
37874;DHT22;23709;48.078;11.684;2023-02-01T20:37:25;4.70;88.50
37874;DHT22;23709;48.078;11.684;2023-02-01T20:39:57;4.70;88.20
37874;DHT22;23709;48.078;11.684;2023-02-01T20:42:29;4.70;89.00
37874;DHT22;23709;48.078;11.684;2023-02-01T20:45:03;4.70;89.10
37874;DHT22;23709;48.078;11.684;2023-02-01T20:47:35;4.80;88.50
37874;DHT22;23709;48.078;11.684;2023-02-01T20:50:08;4.80;88.40
37874;DHT22;23709;48.078;11.684;2023-02-01T20:52:41;4.80;88.60
37874;DHT22;23709;48.078;11.684;2023-02-01T20:55:13;4.80;88.20
37874;DHT22;23709;48.078;11.684;2023-02-01T20:57:45;4.80;88.10
37874;DHT22;23709;48.078;11.684;2023-02-01T21:00:18;4.80;88.30
37874;DHT22;23709;48.078;11.684;2023-02-01T21:02:53;4.80;89.00
37874;DHT22;23709;48.078;11.684;2023-02-01T21:05:25;4.80;90.30
37874;DHT22;23709;48.078;11.684;2023-02-01T21:08:11;4.80;90.20
37874;DHT22;23709;48.078;11.684;2023-02-01T21:10:48;4.80;90.30
37874;DHT22;23709;48.078;11.684;2023-02-01T21:13:27;4.70;90.60
37874;DHT22;23709;48.078;11.684;2023-02-01T21:16:02;4.70;90.80
